createdAt,value
2017-11-04T00:01:11.844Z,37.00
2017-11-04T00:03:48.683Z,43.30
2017-11-04T00:06:23.133Z,47.30
2017-11-04T00:08:59.304Z,42.30
2017-11-04T00:11:46.646Z,46.83
2017-11-04T00:14:20.509Z,41.20
2017-11-04T00:17:11.033Z,39.20
2017-11-04T00:19:36.986Z,41.40
2017-11-04T00:22:08.366Z,41.93
2017-11-04T00:24:41.891Z,40.67
2017-11-04T00:27:18.330Z,41.13
2017-11-04T00:29:46.089Z,49.30
2017-11-04T00:32:29.954Z,41.07
2017-11-04T00:34:58.005Z,49.73
2017-11-04T00:37:24.714Z,43.30
2017-11-04T00:42:48.427Z,46.07
2017-11-04T00:45:19.078Z,44.90
2017-11-04T00:48:00.471Z,57.73
2017-11-04T00:50:26.514Z,47.80
2017-11-04T00:53:07.863Z,46.03
2017-11-04T00:55:38.476Z,43.63
2017-11-04T00:58:08.906Z,39.37
2017-11-04T01:00:42.357Z,42.10
2017-11-04T01:03:21.678Z,40.33
2017-11-04T01:05:55.454Z,45.67
2017-11-04T01:08:28.986Z,43.90
2017-11-04T01:11:05.337Z,43.23
2017-11-04T01:13:38.000Z,39.17
2017-11-04T01:16:08.415Z,44.50
2017-11-04T01:18:42.861Z,43.50
2017-11-04T01:21:12.573Z,46.53
2017-11-04T01:23:54.266Z,41.37
2017-11-04T01:26:20.287Z,46.47
2017-11-04T01:28:53.510Z,46.57
2017-11-04T01:31:27.027Z,42.70
2017-11-04T01:34:01.452Z,49.53
2017-11-04T01:36:38.133Z,47.40
2017-11-04T01:42:17.889Z,59.10
2017-11-04T01:44:43.958Z,42.63
2017-11-04T01:47:09.879Z,38.70
2017-11-04T01:49:40.601Z,44.80
2017-11-04T01:52:14.061Z,44.03
2017-11-04T01:54:54.609Z,50.93
2017-11-04T01:57:31.358Z,50.47
2017-11-04T02:00:05.758Z,43.40
2017-11-04T02:02:48.242Z,41.00
2017-11-04T02:05:14.266Z,48.13
2017-11-04T02:07:40.313Z,47.00
2017-11-04T02:10:10.891Z,52.03
2017-11-04T02:12:57.738Z,52.57
2017-11-04T02:15:23.846Z,43.00
2017-11-04T02:17:49.778Z,41.73
2017-11-04T02:20:17.927Z,50.87
2017-11-04T02:22:50.287Z,51.90
2017-11-04T02:25:17.405Z,52.23
2017-11-04T02:27:43.502Z,49.67
2017-11-04T02:30:19.731Z,43.43
2017-11-04T02:32:51.259Z,54.07
2017-11-04T02:35:23.772Z,50.60
2017-11-04T02:37:51.821Z,45.27
2017-11-04T02:40:29.121Z,59.40
2017-11-04T02:43:08.709Z,48.07
2017-11-04T02:45:35.754Z,44.93
2017-11-04T02:48:01.865Z,51.43
2017-11-04T02:50:31.327Z,45.63
2017-11-04T02:53:00.028Z,52.07
2017-11-04T02:55:41.039Z,45.43
2017-11-04T02:58:10.554Z,55.73
2017-11-04T03:00:37.438Z,53.03
2017-11-04T03:03:29.546Z,53.33
2017-11-04T03:06:03.388Z,46.90
2017-11-04T03:08:37.104Z,48.13
2017-11-04T03:11:05.944Z,50.00
2017-11-04T03:13:32.938Z,48.10
2017-11-04T03:16:12.076Z,50.10
2017-11-04T03:18:46.725Z,48.80
2017-11-04T03:21:20.116Z,48.60
2017-11-04T03:23:47.136Z,52.87
2017-11-04T03:26:27.234Z,47.63
2017-11-04T03:28:53.237Z,42.07
2017-11-04T03:31:20.281Z,42.70
2017-11-04T03:33:50.618Z,49.03
2017-11-04T03:36:18.598Z,48.70
2017-11-04T03:38:44.607Z,49.93
2017-11-04T03:41:19.247Z,50.53
2017-11-04T03:43:51.720Z,44.70
2017-11-04T03:46:20.262Z,51.00
2017-11-04T03:48:46.409Z,48.37
2017-11-04T03:51:13.380Z,47.40
2017-11-04T03:53:43.798Z,45.27
2017-11-04T03:56:14.018Z,45.57
2017-11-04T03:58:47.340Z,39.10
2017-11-04T04:01:14.022Z,47.87
2017-11-04T04:03:47.386Z,42.10
2017-11-04T04:06:16.918Z,45.23
2017-11-04T04:08:42.915Z,37.30
2017-11-04T04:11:15.078Z,37.77
2017-11-04T04:13:45.698Z,45.43
2017-11-04T04:16:26.114Z,47.97
2017-11-04T04:18:52.075Z,43.00
2017-11-04T04:21:22.277Z,36.53
2017-11-04T04:23:49.257Z,38.73
2017-11-04T04:26:15.343Z,37.13
2017-11-04T04:28:47.991Z,51.00
2017-11-04T04:31:27.552Z,42.57
2017-11-04T04:34:04.079Z,45.67
2017-11-04T04:36:36.389Z,51.67
2017-11-04T04:39:06.062Z,49.80
2017-11-04T04:41:45.559Z,38.20
2017-11-04T04:44:20.185Z,41.87
2017-11-04T04:47:06.171Z,42.53
2017-11-04T04:49:37.733Z,47.60
2017-11-04T04:52:05.769Z,46.90
2017-11-04T04:54:42.748Z,37.90
2017-11-04T04:57:15.270Z,40.97
2017-11-04T04:59:41.263Z,38.10
2017-11-04T05:02:10.645Z,49.23
2017-11-04T05:04:48.257Z,36.73
2017-11-04T05:07:17.974Z,44.30
2017-11-04T05:09:59.298Z,41.37
2017-11-04T05:12:33.149Z,48.53
2017-11-04T05:15:03.000Z,38.87
2017-11-04T05:17:28.917Z,39.80
2017-11-04T05:20:00.127Z,44.97
2017-11-04T05:22:30.131Z,37.53
2017-11-04T05:24:56.113Z,48.80
2017-11-04T05:27:26.305Z,49.13
2017-11-04T05:30:01.785Z,47.60
2017-11-04T05:32:28.442Z,44.73
2017-11-04T05:34:56.508Z,42.90
2017-11-04T05:37:29.268Z,43.47
2017-11-04T05:40:04.089Z,41.20
2017-11-04T05:42:36.689Z,42.00
2017-11-04T05:45:13.241Z,40.67
2017-11-04T05:47:43.865Z,38.80
2017-11-04T05:50:10.623Z,38.17
2017-11-04T05:52:44.438Z,40.50
2017-11-04T05:55:10.510Z,41.17
2017-11-04T05:57:43.958Z,36.97
2017-11-04T06:00:17.363Z,37.80
2017-11-04T06:02:47.069Z,38.83
2017-11-04T06:05:14.892Z,34.63
2017-11-04T06:07:45.137Z,39.17
2017-11-04T06:10:11.235Z,36.57
2017-11-04T06:12:38.369Z,40.60
2017-11-04T06:15:06.421Z,48.83
2017-11-04T06:17:33.109Z,39.87
2017-11-04T06:20:09.881Z,30.60
2017-11-04T06:25:39.880Z,40.53
2017-11-04T06:28:10.589Z,39.00
2017-11-04T06:30:42.011Z,42.63
2017-11-04T06:33:11.450Z,41.20
2017-11-04T06:35:39.261Z,43.23
2017-11-04T06:38:31.717Z,44.03
2017-11-04T06:40:59.742Z,40.17
2017-11-04T06:49:17.517Z,36.43
2017-11-04T06:51:44.595Z,39.23
2017-11-04T06:54:10.585Z,38.13
2017-11-04T06:56:38.629Z,42.00
2017-11-04T07:02:04.299Z,37.03
2017-11-04T07:04:33.777Z,35.50
2017-11-04T07:07:04.343Z,38.83
2017-11-04T07:09:36.753Z,43.70
2017-11-04T07:12:04.786Z,44.90
2017-11-04T07:14:35.369Z,40.20
2017-11-04T07:17:01.324Z,48.30
2017-11-04T07:19:48.081Z,50.50
2017-11-04T07:22:14.068Z,42.40
2017-11-04T07:24:55.161Z,42.50
2017-11-04T07:27:31.906Z,46.33
2017-11-04T07:29:57.870Z,41.00
2017-11-04T07:32:23.794Z,48.23
2017-11-04T07:34:49.777Z,35.97
2017-11-04T07:37:33.545Z,41.63
2017-11-04T07:40:18.734Z,47.17
2017-11-04T07:42:55.164Z,50.43
2017-11-04T07:45:28.882Z,33.80
2017-11-04T07:47:56.945Z,39.63
2017-11-04T07:50:48.095Z,37.67
2017-11-04T07:53:21.970Z,69.97
2017-11-04T07:55:59.471Z,38.80
2017-11-04T07:58:43.311Z,41.13
2017-11-04T08:01:09.271Z,38.00
2017-11-04T08:03:36.222Z,42.27
2017-11-04T08:06:22.594Z,50.67
2017-11-04T08:08:52.233Z,44.37
2017-11-04T08:11:36.005Z,40.70
2017-11-04T08:14:03.043Z,38.57
2017-11-04T08:16:30.035Z,46.53
2017-11-04T08:19:06.346Z,44.00
2017-11-04T08:21:35.130Z,46.47
2017-11-04T08:27:02.118Z,39.07
2017-11-04T08:29:48.659Z,41.93
2017-11-04T08:32:14.637Z,42.47
2017-11-04T08:34:47.034Z,48.60
2017-11-04T08:37:14.026Z,46.67
2017-11-04T08:39:40.065Z,48.80
2017-11-04T08:42:21.800Z,51.77
2017-11-04T08:44:48.934Z,43.07
2017-11-04T08:47:14.979Z,44.37
2017-11-04T08:50:01.170Z,52.30
2017-11-04T08:52:31.254Z,52.10
2017-11-04T08:55:17.385Z,43.07
2017-11-04T08:57:45.414Z,42.30
2017-11-04T09:00:11.458Z,44.50
2017-11-04T09:02:43.101Z,41.30
2017-11-04T09:05:13.550Z,47.87
2017-11-04T09:07:47.890Z,47.23
2017-11-04T09:10:13.874Z,50.20
2017-11-04T09:12:41.862Z,47.63
2017-11-04T09:15:16.814Z,43.60
2017-11-04T09:17:42.786Z,49.40
2017-11-04T09:20:08.747Z,47.57
2017-11-04T09:22:35.446Z,45.83
2017-11-04T09:25:07.474Z,50.80
2017-11-04T09:27:35.296Z,57.13
2017-11-04T09:30:07.703Z,55.03
2017-11-04T09:32:52.070Z,52.60
2017-11-04T09:35:29.094Z,48.00
2017-11-04T09:37:55.046Z,59.40
2017-11-04T09:40:28.070Z,57.10
2017-11-04T09:42:55.808Z,53.43
2017-11-04T09:45:25.163Z,66.20
2017-11-04T09:47:52.174Z,59.63
2017-11-04T09:50:25.785Z,61.43
2017-11-04T09:52:58.370Z,55.10
2017-11-04T09:55:25.430Z,62.73
2017-11-04T09:57:59.566Z,50.63
2017-11-04T10:00:30.110Z,54.93
2017-11-04T10:03:13.624Z,59.93
2017-11-04T10:05:40.703Z,51.13
2017-11-04T10:08:12.638Z,55.17
2017-11-04T10:10:42.589Z,54.10
2017-11-04T10:13:09.586Z,55.57
2017-11-04T10:15:39.378Z,55.27
2017-11-04T10:18:06.058Z,56.03
2017-11-04T10:20:33.087Z,56.90
2017-11-04T10:23:06.303Z,60.87
2017-11-04T10:25:45.743Z,66.00
2017-11-04T10:28:24.337Z,68.13
2017-11-04T10:31:01.742Z,62.57
2017-11-04T10:33:41.199Z,64.10
2017-11-04T10:36:17.956Z,62.40
2017-11-04T10:38:47.249Z,68.60
2017-11-04T10:41:19.595Z,71.67
2017-11-04T10:44:06.982Z,68.97
2017-11-04T10:46:32.921Z,68.10
2017-11-04T10:49:03.985Z,65.97
2017-11-04T10:51:33.504Z,76.03
2017-11-04T10:54:10.893Z,82.77
2017-11-04T10:56:37.566Z,64.67
2017-11-04T10:59:03.681Z,75.23
2017-11-04T11:01:35.634Z,92.90
2017-11-04T11:04:29.250Z,77.33
2017-11-04T11:06:55.206Z,77.03
2017-11-04T11:09:28.463Z,74.20
2017-11-04T11:11:58.217Z,75.33
2017-11-04T11:14:34.929Z,73.47
2017-11-04T11:17:07.681Z,74.73
2017-11-04T11:19:33.695Z,85.33
2017-11-04T11:21:59.741Z,95.43
2017-11-04T11:24:26.476Z,77.03
2017-11-04T11:27:16.449Z,80.23
2017-11-04T11:29:47.285Z,76.23
2017-11-04T11:32:17.097Z,79.30
2017-11-04T11:34:43.203Z,78.60
2017-11-04T11:37:09.190Z,78.40
2017-11-04T11:39:35.166Z,86.77
2017-11-04T11:42:02.177Z,74.97
2017-11-04T11:44:36.546Z,89.47
2017-11-04T11:47:03.573Z,83.87
2017-11-04T11:49:40.405Z,75.63
2017-11-04T11:52:17.906Z,90.10
2017-11-04T11:54:44.673Z,78.33
2017-11-04T11:57:12.714Z,85.27
2017-11-04T11:59:43.255Z,84.20
2017-11-04T12:02:13.708Z,76.20
2017-11-04T12:04:39.653Z,79.83
2017-11-04T12:07:16.464Z,76.47
2017-11-04T12:09:50.425Z,83.03
2017-11-04T12:12:16.417Z,78.67
2017-11-04T12:14:43.111Z,94.50
2017-11-04T12:17:12.572Z,79.87
2017-11-04T12:19:39.249Z,82.30
2017-11-04T12:22:05.213Z,78.87
2017-11-04T12:24:31.138Z,86.50
2017-11-04T12:26:58.113Z,80.80
2017-11-04T12:29:24.153Z,72.40
2017-11-04T12:31:50.918Z,81.83
2017-11-04T12:34:17.008Z,74.90
2017-11-04T12:36:44.990Z,78.80
2017-11-04T12:39:11.010Z,81.57
2017-11-04T12:41:36.939Z,69.50
2017-11-04T12:44:02.994Z,77.90
2017-11-04T12:46:29.703Z,70.63
2017-11-04T12:48:55.764Z,75.60
2017-11-04T12:51:22.471Z,68.93
2017-11-04T12:53:48.394Z,84.07
2017-11-04T12:56:14.385Z,71.97
2017-11-04T12:58:40.349Z,72.63
2017-11-04T13:01:06.329Z,72.93
2017-11-04T13:03:33.492Z,82.33
2017-11-04T13:06:01.168Z,78.47
2017-11-04T13:08:27.085Z,64.90
2017-11-04T13:10:53.776Z,66.67
2017-11-04T13:13:19.718Z,58.80
2017-11-04T13:15:45.695Z,64.30
2017-11-04T13:18:11.636Z,57.97
2017-11-04T13:20:37.569Z,63.33
2017-11-04T13:23:03.582Z,70.03
2017-11-04T13:25:29.549Z,73.97
2017-11-04T13:27:55.511Z,59.97
2017-11-04T13:30:24.519Z,65.60
2017-11-04T13:32:51.202Z,62.53
2017-11-04T13:35:20.610Z,62.00
2017-11-04T13:37:46.613Z,65.07
2017-11-04T13:40:12.602Z,62.23
2017-11-04T13:42:39.514Z,61.70
2017-11-04T13:45:05.457Z,61.97
2017-11-04T13:47:34.597Z,72.27
2017-11-04T13:50:01.267Z,61.43
2017-11-04T13:52:29.329Z,72.67
2017-11-04T13:54:56.051Z,62.40
2017-11-04T13:57:22.085Z,69.23
2017-11-04T13:59:50.764Z,64.43
2017-11-04T14:02:17.717Z,65.27
2017-11-04T14:04:46.938Z,54.97
2017-11-04T14:07:20.266Z,62.07
2017-11-04T14:09:46.226Z,51.87
2017-11-04T14:12:12.246Z,53.93
2017-11-04T14:14:38.256Z,54.17
2017-11-04T14:17:04.194Z,60.43
2017-11-04T14:19:30.151Z,64.00
2017-11-04T14:21:57.106Z,52.10
2017-11-04T14:24:26.682Z,52.77
2017-11-04T14:26:52.609Z,55.90
2017-11-04T14:29:20.543Z,56.23
2017-11-04T14:32:01.757Z,59.47
2017-11-04T14:34:32.227Z,54.70
2017-11-04T14:37:02.894Z,56.20
2017-11-04T14:39:28.837Z,54.93
2017-11-04T14:42:02.439Z,56.90
2017-11-04T14:44:32.081Z,64.47
2017-11-04T14:46:59.033Z,88.37
2017-11-04T14:49:25.041Z,74.27
2017-11-04T14:51:50.998Z,57.03
2017-11-04T14:54:20.021Z,56.47
2017-11-04T14:56:47.712Z,54.23
2017-11-04T14:59:13.652Z,56.47
2017-11-04T15:01:39.610Z,51.53
2017-11-04T15:04:05.538Z,49.70
2017-11-04T15:06:31.502Z,56.10
2017-11-04T15:08:59.190Z,58.70
2017-11-04T15:11:25.135Z,48.93
2017-11-04T15:13:51.059Z,57.23
2017-11-04T15:16:16.991Z,52.47
2017-11-04T15:18:42.972Z,56.83
2017-11-04T15:21:11.665Z,55.03
2017-11-04T15:23:38.597Z,54.13
2017-11-04T15:26:04.711Z,57.90
2017-11-04T15:28:30.642Z,55.87
2017-11-04T15:30:56.583Z,53.63
2017-11-04T15:33:22.534Z,61.63
2017-11-04T15:35:53.002Z,52.97
2017-11-04T15:38:18.977Z,55.50
2017-11-04T15:40:44.906Z,59.47
2017-11-04T15:43:10.847Z,54.07
2017-11-04T15:45:37.530Z,51.03
2017-11-04T15:48:03.499Z,57.53
2017-11-04T15:50:30.462Z,48.50
2017-11-04T15:53:03.802Z,55.40
2017-11-04T15:55:29.721Z,53.43
2017-11-04T15:57:55.658Z,59.70
2017-11-04T16:00:21.647Z,53.00
2017-11-04T16:02:48.374Z,56.80
2017-11-04T16:05:14.318Z,56.03
2017-11-04T16:07:44.646Z,65.93
2017-11-04T16:10:11.330Z,65.10
2017-11-04T16:12:37.277Z,61.80
2017-11-04T16:15:03.315Z,60.73
2017-11-04T16:17:29.246Z,57.73
2017-11-04T16:19:55.174Z,66.53
2017-11-04T16:22:21.101Z,67.93
2017-11-04T16:24:47.050Z,77.10
2017-11-04T16:27:13.757Z,100.70
2017-11-04T16:29:39.691Z,78.87
2017-11-04T16:32:05.620Z,84.83
2017-11-04T16:34:31.567Z,74.90
2017-11-04T16:36:57.508Z,93.63
2017-11-04T16:39:23.446Z,78.30
2017-11-04T16:41:50.116Z,86.03
2017-11-04T16:44:16.070Z,70.77
2017-11-04T16:46:42.029Z,77.60
2017-11-04T16:49:08.018Z,77.43
2017-11-04T16:51:33.955Z,83.53
2017-11-04T16:53:59.925Z,79.87
2017-11-04T16:56:25.862Z,79.40
2017-11-04T16:58:52.634Z,80.53
2017-11-04T17:01:18.574Z,64.93
2017-11-04T17:03:44.503Z,66.20
2017-11-04T17:06:10.426Z,84.30
2017-11-04T17:08:36.358Z,69.27
2017-11-04T17:11:02.342Z,80.80
2017-11-04T17:13:29.009Z,87.67
2017-11-04T17:15:54.955Z,86.87
2017-11-04T17:18:20.911Z,93.63
2017-11-04T17:20:47.041Z,109.57
2017-11-04T17:23:12.982Z,99.20
2017-11-04T17:25:38.920Z,93.07
2017-11-04T17:28:09.442Z,99.60
2017-11-04T17:30:35.369Z,96.67
2017-11-04T17:33:01.334Z,97.33
2017-11-04T17:35:27.294Z,84.40
2017-11-04T17:37:53.217Z,75.00
2017-11-04T17:40:19.184Z,74.20
2017-11-04T17:42:45.116Z,70.90
2017-11-04T17:45:11.806Z,85.17
2017-11-04T17:47:37.768Z,73.97
2017-11-04T17:50:03.722Z,79.57
2017-11-04T17:52:30.405Z,71.50
2017-11-04T17:54:56.384Z,60.90
2017-11-04T17:57:23.101Z,72.67
2017-11-04T17:59:57.479Z,68.03
2017-11-04T18:02:23.414Z,86.60
2017-11-04T18:07:42.557Z,89.43
2017-11-04T18:10:08.519Z,85.10
2017-11-04T18:12:34.498Z,82.07
2017-11-04T18:15:02.296Z,80.13
2017-11-04T18:17:32.193Z,75.13
2017-11-04T18:19:58.169Z,75.43
2017-11-04T18:22:24.125Z,76.13
2017-11-04T18:24:51.566Z,74.60
2017-11-04T18:27:17.525Z,79.63
2017-11-04T18:29:43.478Z,88.57
2017-11-04T18:32:10.143Z,88.97
2017-11-04T18:34:36.107Z,97.50
2017-11-04T18:37:06.285Z,86.40
2017-11-04T18:39:32.298Z,81.93
2017-11-04T18:41:59.048Z,84.10
2017-11-04T18:44:25.708Z,81.80
2017-11-04T18:46:52.382Z,72.40
2017-11-04T18:49:18.322Z,82.10
2017-11-04T18:51:44.297Z,75.80
2017-11-04T18:54:11.038Z,76.83
2017-11-04T18:56:37.810Z,75.13
2017-11-04T18:59:03.750Z,81.17
2017-11-04T19:01:29.693Z,82.73
2017-11-04T19:03:55.638Z,70.47
2017-11-04T19:06:21.596Z,74.93
2017-11-04T19:08:48.638Z,75.57
2017-11-04T19:11:14.570Z,84.20
2017-11-04T19:13:43.999Z,70.30
2017-11-04T19:16:21.707Z,67.43
2017-11-04T19:18:58.161Z,67.10
2017-11-04T19:21:27.952Z,69.67
2017-11-04T19:23:53.889Z,80.33
2017-11-04T19:26:42.293Z,69.37
2017-11-04T19:29:27.027Z,78.60
2017-11-04T19:32:01.735Z,94.73
2017-11-04T19:34:27.735Z,68.33
2017-11-04T19:37:08.229Z,82.63
2017-11-04T19:39:50.073Z,73.70
2017-11-04T19:42:16.186Z,68.73
2017-11-04T19:44:55.023Z,60.83
2017-11-04T19:47:23.013Z,63.17
2017-11-04T19:49:49.702Z,69.43
2017-11-04T19:52:15.621Z,73.40
2017-11-04T19:54:41.561Z,62.80
2017-11-04T19:57:07.512Z,65.77
2017-11-04T19:59:36.866Z,69.03
2017-11-04T20:02:02.797Z,71.63
2017-11-04T20:04:28.722Z,82.93
2017-11-04T20:06:54.657Z,82.40
2017-11-04T20:09:20.621Z,81.63
2017-11-04T20:11:46.550Z,72.53
2017-11-04T20:14:12.514Z,79.23
2017-11-04T20:16:39.182Z,68.80
2017-11-04T20:19:05.113Z,72.50
2017-11-04T20:21:31.040Z,73.73
2017-11-04T20:23:56.990Z,87.60
2017-11-04T20:26:26.649Z,82.20
2017-11-04T20:31:50.571Z,87.20
2017-11-04T20:34:26.933Z,83.73
2017-11-04T20:37:14.389Z,72.67
2017-11-04T20:39:58.033Z,68.73
2017-11-04T20:42:24.081Z,71.53
2017-11-04T20:44:59.467Z,82.60
2017-11-04T20:47:30.816Z,65.40
2017-11-04T20:50:03.414Z,65.97
2017-11-04T20:52:31.481Z,76.00
2017-11-04T20:55:03.730Z,79.57
2017-11-04T20:57:38.342Z,71.30
2017-11-04T21:00:30.934Z,79.57
2017-11-04T21:02:56.974Z,80.07
2017-11-04T21:05:23.025Z,76.33
2017-11-04T21:07:53.633Z,69.33
2017-11-04T21:10:19.709Z,84.60
2017-11-04T21:12:47.673Z,72.60
2017-11-04T21:15:14.420Z,65.50
2017-11-04T21:17:46.050Z,54.40
2017-11-04T21:20:20.091Z,68.17
2017-11-04T21:22:53.706Z,61.03
2017-11-04T21:25:24.126Z,66.80
2017-11-04T21:27:53.610Z,67.40
2017-11-04T21:30:34.322Z,57.30
2017-11-04T21:33:08.830Z,41.60
2017-11-04T21:35:48.306Z,35.37
2017-11-04T21:38:19.793Z,34.37
2017-11-04T21:40:50.421Z,45.93
2017-11-04T21:43:27.912Z,41.00
2017-11-04T21:46:05.334Z,39.90
2017-11-04T21:48:34.913Z,44.80
2017-11-04T21:59:44.505Z,44.93
2017-11-04T22:02:14.910Z,52.00
2017-11-04T22:04:52.452Z,54.07
2017-11-04T22:07:25.800Z,52.80
2017-11-04T22:10:00.318Z,64.40
2017-11-04T22:12:28.101Z,59.27
2017-11-04T22:14:58.629Z,56.47
2017-11-04T22:17:29.254Z,65.07
2017-11-04T22:20:02.695Z,56.70
2017-11-04T22:22:32.660Z,66.47
2017-11-04T22:30:53.637Z,76.63
2017-11-04T22:36:16.186Z,70.47
2017-11-04T22:38:47.089Z,72.63
2017-11-04T22:41:28.413Z,74.00
2017-11-04T22:44:19.594Z,70.13
2017-11-04T22:46:49.091Z,63.77
2017-11-04T22:52:09.275Z,53.70
2017-11-04T22:54:57.898Z,62.20
2017-11-04T22:57:48.802Z,49.43
2017-11-04T23:00:14.771Z,55.93
2017-11-04T23:02:52.585Z,57.43
2017-11-04T23:05:20.701Z,46.80
2017-11-04T23:07:54.786Z,52.60
2017-11-04T23:10:20.775Z,53.77
2017-11-04T23:12:48.537Z,49.73
2017-11-04T23:15:26.862Z,51.40
2017-11-04T23:17:59.662Z,48.80
2017-11-04T23:20:36.445Z,51.13
2017-11-04T23:23:17.630Z,50.57
2017-11-04T23:25:54.675Z,56.90
2017-11-04T23:28:25.418Z,56.70
2017-11-04T23:31:11.818Z,65.50
2017-11-04T23:33:44.818Z,55.23
2017-11-04T23:36:10.760Z,64.73
2017-11-04T23:38:47.611Z,58.17
2017-11-04T23:41:19.978Z,61.03
2017-11-04T23:43:54.300Z,56.80
2017-11-04T23:49:16.624Z,55.67
2017-11-04T23:51:42.654Z,50.90
2017-11-04T23:54:16.302Z,62.67
2017-11-04T23:56:52.763Z,49.60
2017-11-04T23:59:40.209Z,47.93
